Time;durP1;ratioP1;P1;durP2;ratioP2;P2;SDS_P1;SDS_P2;PMS_P1;PMS_P2;Temp;Humidity;BMP_temperature;BMP_pressure;BME280_temperature;BME280_humidity;BME280_pressure;Samples;Min_cycle;Max_cycle;Signal;HPM_P1;HPM_P2
2021/10/02 00:01:47;;;;;;;44.25;28.65;;;;;;;8.41;69.18;101259.19;1625793;87;22020;-75
2021/10/02 00:36:52;;;;;;;34.05;21.48;;;;;;;7.68;71.95;101240.37;1647082;85;21063;-74
2021/10/02 00:41:57;;;;;;;28.70;20.57;;;;;;;7.72;71.92;101240.30;1582690;88;21147;-73
2021/10/02 00:47:02;;;;;;;30.15;19.90;;;;;;;7.60;72.19;101236.50;1649764;85;21087;-73
2021/10/02 00:49:28;;;;;;;38.60;23.67;;;;;;;7.46;72.56;101229.38;1668805;84;21008;-70
2021/10/02 00:51:55;;;;;;;43.13;28.40;;;;;;;7.34;72.93;101231.71;1656822;85;21122;-73
2021/10/02 00:54:21;;;;;;;39.75;27.55;;;;;;;7.20;73.56;101229.92;1655415;85;20983;-73
2021/10/02 00:56:49;;;;;;;33.75;25.40;;;;;;;7.10;73.97;101229.94;1660839;85;20933;-74
2021/10/02 00:59:16;;;;;;;45.70;30.40;;;;;;;7.06;74.31;101233.48;1635471;86;21027;-77
2021/10/02 01:01:48;;;;;;;44.45;29.45;;;;;;;7.04;74.64;101230.18;1646862;85;21079;-75
2021/10/02 01:04:43;;;;;;;47.25;30.27;;;;;;;7.06;74.87;101231.31;1679629;84;21055;-74
2021/10/02 01:07:30;;;;;;;41.45;29.95;;;;;;;7.12;75.04;101234.06;1610135;87;21765;-73
2021/10/02 01:10:37;;;;;;;61.90;38.02;;;;;;;7.23;75.01;101222.04;1622922;86;21565;-74
2021/10/02 01:13:26;;;;;;;83.22;46.28;;;;;;;7.19;74.97;101229.63;1627980;86;20977;-73
2021/10/02 01:16:24;;;;;;;64.90;41.35;;;;;;;7.11;75.04;101224.38;1637494;86;21585;-72
2021/10/02 01:19:39;;;;;;;62.60;38.50;;;;;;;7.14;75.24;101230.70;1667400;85;20908;-76
2021/10/02 01:22:45;;;;;;;80.87;51.25;;;;;;;7.19;75.16;101220.77;1658333;85;21685;-74
2021/10/02 01:25:51;;;;;;;87.97;58.28;;;;;;;7.21;75.03;101216.87;1675530;85;20958;-74
2021/10/02 01:28:18;;;;;;;70.83;46.15;;;;;;;7.19;74.89;101221.60;1653419;85;20978;-73
2021/10/02 01:30:58;;;;;;;97.70;57.48;;;;;;;7.19;74.91;101220.77;1655222;85;21052;-75
2021/10/02 01:33:49;;;;;;;83.07;55.65;;;;;;;7.17;74.83;101220.95;1652713;85;21059;-73
2021/10/02 01:47:20;;;;;;;44.77;28.70;;;;;;;7.43;74.58;101225.75;1674108;84;20999;-75
2021/10/02 01:49:50;;;;;;;41.45;28.38;;;;;;;7.48;74.33;101226.00;1655965;85;21069;-75
2021/10/02 01:52:21;;;;;;;39.85;26.17;;;;;;;7.50;74.03;101222.61;1652405;84;21047;-72
2021/10/02 01:54:48;;;;;;;41.70;27.87;;;;;;;7.47;73.90;101215.48;1649380;85;21029;-74
2021/10/02 01:57:15;;;;;;;40.33;28.42;;;;;;;7.42;73.82;101214.20;1642808;86;21108;-76
2021/10/02 01:59:42;;;;;;;32.03;24.07;;;;;;;7.40;73.79;101219.42;1643506;86;21036;-75
2021/10/02 02:02:08;;;;;;;45.55;26.42;;;;;;;7.37;73.77;101217.97;1656997;86;21327;-75
2021/10/02 02:04:35;;;;;;;30.00;21.48;;;;;;;7.35;73.74;101219.16;1662928;85;21027;-76
2021/10/02 02:07:02;;;;;;;38.80;24.27;;;;;;;7.32;73.72;101216.87;1656222;85;21096;-74
2021/10/02 02:09:37;;;;;;;36.50;23.25;;;;;;;7.25;73.75;101222.16;1677370;85;21024;-76
2021/10/02 02:12:01;;;;;;;37.23;22.10;;;;;;;7.20;73.87;101223.73;1646267;85;20961;-73
2021/10/02 02:14:29;;;;;;;36.40;22.00;;;;;;;7.19;74.04;101221.60;1619568;86;21080;-75
2021/10/02 02:16:55;;;;;;;29.85;22.20;;;;;;;7.23;74.13;101220.70;1624695;87;20983;-73
2021/10/02 02:19:22;;;;;;;21.48;17.32;;;;;;;7.29;74.12;101223.42;1649376;86;21056;-74
2021/10/02 02:21:48;;;;;;;43.15;24.02;;;;;;;7.36;74.01;101216.81;1584112;87;21024;-75
2021/10/02 02:24:14;;;;;;;28.55;22.00;;;;;;;7.25;73.87;101219.48;1650774;85;21052;-73
2021/10/02 02:26:41;;;;;;;31.90;21.37;;;;;;;7.18;74.09;101217.77;1627837;86;21088;-75
2021/10/02 02:29:07;;;;;;;30.70;22.82;;;;;;;7.13;74.23;101221.52;1654415;86;21080;-74
2021/10/02 02:31:33;;;;;;;34.18;24.43;;;;;;;7.11;74.32;101229.73;1654494;85;21104;-75
2021/10/02 02:34:00;;;;;;;35.70;26.02;;;;;;;7.11;74.37;101231.57;1638782;86;21040;-75
2021/10/02 02:36:27;;;;;;;34.30;24.63;;;;;;;7.13;74.42;101225.53;1656229;86;21029;-75
2021/10/02 02:38:53;;;;;;;35.40;23.45;;;;;;;7.14;74.33;101220.51;1656693;85;21679;-71
2021/10/02 02:41:20;;;;;;;38.23;23.22;;;;;;;7.15;74.28;101219.47;1655997;86;21082;-72
2021/10/02 02:43:46;;;;;;;33.38;22.48;;;;;;;7.13;74.26;101220.19;1633156;86;21498;-72
2021/10/02 02:46:35;;;;;;;34.85;23.62;;;;;;;7.05;74.40;101218.44;1669648;85;20935;-73
2021/10/02 02:49:13;;;;;;;36.23;25.88;;;;;;;6.95;74.60;101220.62;1634995;86;21069;-71
2021/10/02 02:51:56;;;;;;;31.23;24.92;;;;;;;6.94;74.83;101220.29;1644817;86;21101;-75
2021/10/02 02:54:40;;;;;;;38.63;24.90;;;;;;;7.01;74.91;101216.66;1655013;85;20965;-73
2021/10/02 02:57:15;;;;;;;50.95;34.58;;;;;;;7.11;74.90;101219.53;1652363;86;21015;-73
2021/10/02 03:00:14;;;;;;;39.38;29.63;;;;;;;7.18;74.70;101208.41;1617078;87;21055;-72
2021/10/02 03:02:55;;;;;;;37.78;27.10;;;;;;;7.20;74.49;101213.87;1638295;85;21005;-72
2021/10/02 03:05:22;;;;;;;39.00;27.58;;;;;;;7.16;74.37;101215.27;1672426;85;21154;-73
2021/10/02 03:07:55;;;;;;;34.50;24.27;;;;;;;7.08;74.36;101206.55;1633274;86;21120;-73
2021/10/02 03:10:23;;;;;;;31.33;22.62;;;;;;;7.03;74.50;101211.12;1669749;84;21428;-74
2021/10/02 03:12:54;;;;;;;42.48;23.62;;;;;;;6.96;74.65;101210.21;1680345;85;21472;-74
2021/10/02 03:15:20;;;;;;;38.92;24.10;;;;;;;6.88;75.02;101207.66;1668654;84;21578;-73
2021/10/02 03:17:47;;;;;;;36.20;26.15;;;;;;;6.83;75.28;101212.23;1631959;86;21554;-74
2021/10/02 03:20:13;;;;;;;47.23;28.30;;;;;;;6.78;75.40;101207.96;1678741;85;21076;-74
2021/10/02 03:22:41;;;;;;;52.90;34.15;;;;;;;6.75;75.54;101200.83;1652388;84;20988;-72
2021/10/02 03:25:09;;;;;;;72.58;44.50;;;;;;;6.69;75.67;101200.23;1650039;86;21062;-73
2021/10/02 03:27:36;;;;;;;74.27;49.03;;;;;;;6.67;75.88;101197.73;1652451;85;21071;-72
2021/10/02 03:30:02;;;;;;;94.15;52.45;;;;;;;6.65;76.06;101201.63;1649717;86;23412;-73
2021/10/02 03:32:28;;;;;;;74.62;45.95;;;;;;;6.72;76.18;101202.52;1631087;86;20917;-72
2021/10/02 03:34:56;;;;;;;95.12;50.58;;;;;;;6.79;76.15;101200.77;1652655;84;21000;-72
2021/10/02 03:37:23;;;;;;;64.37;40.75;;;;;;;6.88;76.04;101196.45;1651137;85;20945;-73
2021/10/02 03:39:49;;;;;;;78.05;40.78;;;;;;;6.89;75.78;101191.44;1650535;86;21498;-73
2021/10/02 03:42:20;;;;;;;61.65;35.28;;;;;;;6.90;75.72;101196.28;1626527;87;21833;-72
2021/10/02 03:44:48;;;;;;;45.85;31.95;;;;;;;6.94;75.56;101187.69;1637342;86;21105;-73
2021/10/02 03:47:16;;;;;;;63.40;33.15;;;;;;;6.95;75.28;101197.34;1651873;85;21178;-73
2021/10/02 03:49:43;;;;;;;41.80;29.35;;;;;;;6.90;75.26;101196.28;1653270;85;21062;-73
2021/10/02 03:52:10;;;;;;;39.33;26.77;;;;;;;6.83;75.28;101194.03;1648093;85;21027;-73
2021/10/02 03:54:37;;;;;;;42.25;23.07;;;;;;;6.74;75.37;101205.34;1656483;86;21100;-74
2021/10/02 03:57:04;;;;;;;40.15;24.75;;;;;;;6.64;75.59;101202.14;1654094;86;21049;-73
2021/10/02 03:59:31;;;;;;;41.70;27.42;;;;;;;6.57;75.79;101199.87;1638615;86;21030;-74
2021/10/02 04:01:59;;;;;;;34.45;21.68;;;;;;;6.58;76.07;101200.20;1605805;88;21038;-73
2021/10/02 04:04:26;;;;;;;27.05;20.50;;;;;;;6.63;76.15;101203.14;1624618;88;21132;-75
2021/10/02 04:06:52;;;;;;;27.07;17.45;;;;;;;6.62;76.09;101199.34;1649263;85;21115;-74
2021/10/02 04:09:19;;;;;;;33.20;20.02;;;;;;;6.61;76.17;101202.52;1641379;87;20995;-74
2021/10/02 04:11:47;;;;;;;29.55;19.42;;;;;;;6.56;76.19;101204.92;1601107;89;21089;-74
2021/10/02 04:14:14;;;;;;;23.62;16.77;;;;;;;6.53;76.29;101202.61;1660719;85;21044;-72
2021/10/02 04:16:42;;;;;;;27.67;17.55;;;;;;;6.48;76.37;101203.16;1680674;85;20969;-74
2021/10/02 04:19:10;;;;;;;37.55;18.70;;;;;;;6.40;76.78;101196.59;1679972;85;21493;-72
2021/10/02 04:21:36;;;;;;;25.57;16.55;;;;;;;6.36;76.82;101200.66;1676674;84;20939;-74
2021/10/02 04:24:03;;;;;;;28.15;19.07;;;;;;;6.33;76.90;101196.20;1632548;85;20978;-74
2021/10/02 04:26:30;;;;;;;21.20;16.23;;;;;;;6.31;77.09;101204.39;1678182;85;21070;-73
2021/10/02 04:28:57;;;;;;;26.00;18.50;;;;;;;6.29;77.18;101194.38;1675109;85;21010;-73
2021/10/02 04:31:23;;;;;;;26.12;16.05;;;;;;;6.31;77.29;101200.38;1632203;86;21863;-72
2021/10/02 04:33:50;;;;;;;26.60;17.67;;;;;;;6.38;77.23;101197.81;1668041;84;21034;-72
2021/10/02 04:36:16;;;;;;;19.73;15.43;;;;;;;6.35;77.14;101195.48;1626215;86;21519;-71
2021/10/02 04:38:43;;;;;;;23.77;14.58;;;;;;;6.32;77.31;101197.20;1606850;87;21031;-72
2021/10/02 04:41:09;;;;;;;28.83;17.82;;;;;;;6.32;77.38;101199.37;1635482;86;21033;-76
2021/10/02 04:43:41;;;;;;;26.90;17.57;;;;;;;6.30;77.39;101201.39;1653329;85;22125;-75
2021/10/02 04:46:06;;;;;;;32.67;18.10;;;;;;;6.30;77.52;101197.38;1627039;87;21087;-77
2021/10/02 04:48:34;;;;;;;34.05;18.90;;;;;;;6.30;77.62;101202.72;1642403;87;21139;-76
2021/10/02 04:51:01;;;;;;;27.65;18.57;;;;;;;6.30;77.64;101200.05;1638886;85;21014;-77
2021/10/02 04:53:27;;;;;;;27.62;17.92;;;;;;;6.31;77.69;101195.54;1649976;86;21063;-77
2021/10/02 04:55:55;;;;;;;23.95;17.40;;;;;;;6.37;77.63;101206.83;1627489;86;21206;-73
2021/10/02 04:58:21;;;;;;;26.97;18.05;;;;;;;6.41;77.54;101202.27;1661595;85;21067;-73
2021/10/02 05:00:48;;;;;;;38.20;20.00;;;;;;;6.46;77.43;101194.52;1654970;85;21583;-71
2021/10/02 05:03:18;;;;;;;25.92;16.70;;;;;;;6.48;77.38;101200.49;1629187;86;21539;-72
2021/10/02 05:05:46;;;;;;;28.80;17.82;;;;;;;6.51;77.32;101199.31;1609591;88;21043;-71
2021/10/02 05:08:12;;;;;;;26.00;19.17;;;;;;;6.52;77.28;101207.12;1591993;88;21554;-72
2021/10/02 05:10:40;;;;;;;24.20;15.50;;;;;;;6.52;77.32;101201.77;1625576;87;21004;-73
2021/10/02 05:13:07;;;;;;;22.67;18.73;;;;;;;6.54;77.30;101200.26;1616562;87;20968;-72
2021/10/02 05:15:34;;;;;;;20.57;16.50;;;;;;;6.57;77.29;101206.55;1623072;87;21225;-72
2021/10/02 05:18:01;;;;;;;25.82;16.87;;;;;;;6.61;77.28;101204.36;1633028;87;21007;-73
2021/10/02 05:20:28;;;;;;;24.92;17.80;;;;;;;6.63;77.35;101201.81;1641046;87;21066;-72
2021/10/02 05:22:57;;;;;;;24.00;17.25;;;;;;;6.64;77.35;101200.80;1618548;87;21488;-73
2021/10/02 05:25:23;;;;;;;23.80;16.55;;;;;;;6.70;77.39;101205.91;1610249;88;21566;-72
2021/10/02 05:27:49;;;;;;;22.60;16.05;;;;;;;6.78;77.76;101211.97;1621133;87;21554;-72
2021/10/02 05:30:16;;;;;;;27.80;19.70;;;;;;;6.84;77.93;101208.55;1649372;85;21038;-73
2021/10/02 05:32:42;;;;;;;27.95;19.45;;;;;;;6.88;77.93;101217.02;1609652;87;21145;-73
2021/10/02 05:35:08;;;;;;;28.50;18.85;;;;;;;6.98;78.16;101214.88;1619164;87;21055;-76
2021/10/02 05:37:35;;;;;;;31.95;16.40;;;;;;;7.03;77.44;101214.31;1616505;88;21341;-72
2021/10/02 05:40:02;;;;;;;22.10;16.48;;;;;;;7.10;77.14;101217.90;1666441;85;21008;-72
2021/10/02 05:42:29;;;;;;;26.55;18.15;;;;;;;7.11;76.85;101216.34;1636183;86;22303;-71
2021/10/02 05:44:55;;;;;;;22.80;16.25;;;;;;;7.15;76.87;101213.61;1620423;88;21874;-71
2021/10/02 05:47:21;;;;;;;21.37;15.75;;;;;;;7.20;76.63;101216.55;1642611;85;21012;-73
2021/10/02 05:49:48;;;;;;;25.70;14.90;;;;;;;7.21;76.46;101228.91;1641022;87;21090;-71
2021/10/02 05:52:14;;;;;;;25.32;15.15;;;;;;;7.25;76.42;101215.97;1634795;86;20990;-72
2021/10/02 05:54:41;;;;;;;21.75;14.10;;;;;;;7.27;76.22;101223.31;1633855;86;21119;-71
2021/10/02 05:57:08;;;;;;;29.67;17.37;;;;;;;7.32;76.19;101219.56;1632835;87;21068;-74
2021/10/02 05:59:34;;;;;;;28.50;17.32;;;;;;;7.35;76.18;101218.66;1655849;85;21428;-77
2021/10/02 06:02:01;;;;;;;22.60;14.90;;;;;;;7.43;76.09;101225.21;1637526;85;21013;-75
2021/10/02 06:04:27;;;;;;;20.43;15.25;;;;;;;7.49;76.06;101222.78;1612854;88;21519;-77
2021/10/02 06:06:54;;;;;;;24.70;17.37;;;;;;;7.55;75.98;101224.70;1661172;85;21082;-73
2021/10/02 06:09:20;;;;;;;26.85;16.95;;;;;;;7.62;76.01;101224.27;1680660;85;21569;-74
2021/10/02 06:11:47;;;;;;;24.30;18.85;;;;;;;7.71;75.83;101229.80;1635943;86;21409;-74
2021/10/02 06:14:13;;;;;;;27.87;18.73;;;;;;;7.79;75.63;101225.12;1654102;85;21085;-73
2021/10/02 06:16:40;;;;;;;20.85;15.90;;;;;;;7.87;75.41;101228.99;1627539;86;20991;-74
2021/10/02 06:19:06;;;;;;;22.93;17.42;;;;;;;7.93;75.21;101230.58;1638896;87;21102;-74
2021/10/02 06:21:34;;;;;;;24.70;17.57;;;;;;;7.95;75.12;101229.38;1650447;87;20908;-73
2021/10/02 06:24:02;;;;;;;36.13;20.02;;;;;;;8.00;75.17;101227.45;1626450;87;21082;-72
2021/10/02 06:26:31;;;;;;;34.23;19.77;;;;;;;8.07;75.05;101229.65;1627570;87;21045;-73
2021/10/02 06:28:58;;;;;;;30.85;19.48;;;;;;;8.16;74.98;101229.30;1645951;84;21543;-73
2021/10/02 06:31:24;;;;;;;23.38;16.77;;;;;;;8.31;74.77;101234.07;1649937;85;21067;-76
2021/10/02 06:33:50;;;;;;;25.82;18.45;;;;;;;8.40;74.46;101226.69;1626970;85;21051;-71
2021/10/02 06:36:17;;;;;;;28.95;20.00;;;;;;;8.47;74.37;101230.25;1649679;86;21134;-74
2021/10/02 06:38:43;;;;;;;28.73;15.85;;;;;;;8.59;74.20;101225.97;1625863;86;20975;-75
2021/10/02 06:41:09;;;;;;;27.32;19.05;;;;;;;8.70;74.13;101230.77;1649509;86;21044;-74
2021/10/02 06:43:37;;;;;;;30.17;20.05;;;;;;;8.79;74.02;101230.59;1626371;86;21077;-75
2021/10/02 06:46:04;;;;;;;28.87;19.30;;;;;;;8.87;73.77;101224.55;1649895;85;21466;-74
2021/10/02 06:48:30;;;;;;;32.48;20.05;;;;;;;8.94;73.61;101232.09;1602982;86;21032;-73
2021/10/02 06:50:57;;;;;;;32.38;21.75;;;;;;;9.00;73.43;101225.94;1629358;85;21039;-73
2021/10/02 06:53:25;;;;;;;28.05;19.57;;;;;;;9.08;73.31;101234.30;1672851;85;21010;-73
2021/10/02 06:55:51;;;;;;;41.35;21.57;;;;;;;9.16;73.21;101238.14;1649713;85;21591;-76
2021/10/02 06:58:17;;;;;;;29.98;20.08;;;;;;;9.22;73.15;101232.48;1673698;84;20994;-72
2021/10/02 07:00:43;;;;;;;35.75;18.75;;;;;;;9.28;73.06;101236.53;1646302;85;21497;-73
2021/10/02 07:03:10;;;;;;;30.43;20.37;;;;;;;9.35;72.96;101237.36;1644076;84;21566;-74
2021/10/02 07:05:36;;;;;;;26.40;19.10;;;;;;;9.43;72.87;101237.70;1653033;84;21034;-76
2021/10/02 07:08:03;;;;;;;25.37;17.82;;;;;;;9.53;72.87;101236.78;1658023;85;21157;-74
2021/10/02 07:10:30;;;;;;;39.48;20.52;;;;;;;9.64;72.62;101237.49;1630594;86;21243;-76
2021/10/02 07:12:59;;;;;;;32.70;21.73;;;;;;;9.78;72.49;101235.67;1673620;85;20983;-74
2021/10/02 07:15:26;;;;;;;35.13;21.17;;;;;;;9.91;72.08;101235.66;1628086;86;21183;-73
2021/10/02 07:17:54;;;;;;;41.98;24.82;;;;;;;9.98;71.82;101234.60;1663641;84;21666;-74
2021/10/02 07:20:22;;;;;;;29.23;21.30;;;;;;;10.08;71.74;101228.29;1671806;85;21622;-75
2021/10/02 07:22:50;;;;;;;34.75;22.42;;;;;;;10.20;71.50;101229.03;1670444;85;21535;-73
2021/10/02 07:25:16;;;;;;;29.30;22.58;;;;;;;10.31;71.35;101227.06;1650204;85;21062;-75
2021/10/02 07:27:43;;;;;;;36.95;21.10;;;;;;;10.41;71.06;101225.56;1668796;84;20987;-74
2021/10/02 07:30:10;;;;;;;38.33;22.60;;;;;;;10.47;70.93;101227.41;1649685;86;21075;-74
2021/10/02 07:32:39;;;;;;;35.20;21.73;;;;;;;10.57;70.71;101226.14;1626132;86;21058;-74
2021/10/02 07:35:07;;;;;;;30.65;20.52;;;;;;;10.66;70.51;101228.90;1650606;86;21770;-74
2021/10/02 07:37:33;;;;;;;27.45;19.30;;;;;;;10.74;70.36;101224.64;1593640;88;21042;-73
2021/10/02 07:39:59;;;;;;;30.45;16.97;;;;;;;10.83;70.09;101226.88;1628958;88;21034;-71
2021/10/02 07:42:26;;;;;;;22.90;17.55;;;;;;;10.92;69.86;101230.16;1643432;84;21594;-75
2021/10/02 07:45:01;;;;;;;21.62;18.02;;;;;;;11.02;69.65;101223.78;1666585;86;21046;-74
2021/10/02 07:47:27;;;;;;;30.55;17.98;;;;;;;11.11;69.33;101219.80;1623312;86;21280;-78
2021/10/02 07:49:53;;;;;;;23.05;17.30;;;;;;;11.20;68.96;101219.84;1622226;85;21528;-75
2021/10/02 07:52:20;;;;;;;31.45;18.45;;;;;;;11.31;68.38;101216.98;1638384;86;21566;-76
2021/10/02 07:54:46;;;;;;;22.87;16.37;;;;;;;11.41;68.17;101220.03;1648165;84;21066;-74
2021/10/02 07:57:12;;;;;;;22.50;15.32;;;;;;;11.53;67.85;101216.92;1593262;89;21542;-76
2021/10/02 07:59:39;;;;;;;22.50;15.65;;;;;;;11.67;67.25;101220.34;1659236;85;21082;-76
2021/10/02 08:02:05;;;;;;;26.23;16.27;;;;;;;11.81;66.69;101217.87;1659281;85;21646;-75
2021/10/02 08:04:32;;;;;;;22.95;16.87;;;;;;;11.96;66.56;101217.53;1653237;85;21046;-76
2021/10/02 08:06:58;;;;;;;27.02;17.27;;;;;;;12.09;66.17;101218.23;1668302;85;21074;-75
2021/10/02 08:09:26;;;;;;;21.00;16.48;;;;;;;12.18;65.27;101211.50;1656792;85;21566;-77
2021/10/02 08:11:54;;;;;;;23.80;16.93;;;;;;;12.26;65.48;101213.09;1649353;86;21537;-75
2021/10/02 08:14:22;;;;;;;22.32;16.75;;;;;;;12.37;65.57;101216.94;1617941;88;20975;-73
2021/10/02 08:16:50;;;;;;;22.95;15.78;;;;;;;12.47;64.68;101211.29;1621654;88;21010;-74
2021/10/02 08:19:17;;;;;;;23.60;16.48;;;;;;;12.57;63.94;101212.11;1627846;86;21066;-74
2021/10/02 08:21:45;;;;;;;19.25;14.95;;;;;;;12.66;63.45;101208.88;1649031;85;21090;-75
2021/10/02 08:24:12;;;;;;;20.40;16.32;;;;;;;12.77;62.61;101206.47;1652911;84;21065;-75
2021/10/02 08:26:39;;;;;;;17.85;13.48;;;;;;;12.87;61.77;101207.59;1616513;88;21616;-75
2021/10/02 08:29:07;;;;;;;18.20;14.07;;;;;;;12.97;61.31;101202.47;1643960;87;21491;-74
2021/10/02 08:31:35;;;;;;;17.98;13.62;;;;;;;13.07;60.87;101208.67;1645598;85;21577;-73
2021/10/02 08:34:03;;;;;;;20.57;12.30;;;;;;;13.16;60.21;101210.03;1642930;87;20992;-77
2021/10/02 08:36:31;;;;;;;12.40;10.30;;;;;;;13.25;59.32;101213.22;1614985;88;22214;-76
2021/10/02 08:38:57;;;;;;;16.10;10.78;;;;;;;13.34;57.91;101211.84;1621735;88;21496;-75
2021/10/02 08:41:25;;;;;;;13.48;11.63;;;;;;;13.44;58.06;101210.23;1621591;88;21022;-75
2021/10/02 08:43:52;;;;;;;23.77;13.95;;;;;;;13.53;57.59;101211.54;1589699;86;21236;-79
2021/10/02 08:46:20;;;;;;;12.95;10.03;;;;;;;13.62;57.31;101207.97;1627254;87;21023;-74
2021/10/02 08:48:53;;;;;;;17.62;12.25;;;;;;;13.72;56.57;101204.69;1630743;87;21908;-75
2021/10/02 08:51:19;;;;;;;16.20;10.40;;;;;;;13.81;56.50;101205.47;1578156;89;20991;-74
2021/10/02 08:53:47;;;;;;;20.72;13.08;;;;;;;13.91;56.38;101196.23;1652439;86;21097;-90
2021/10/02 08:56:14;;;;;;;16.82;9.78;;;;;;;14.05;56.28;101202.79;1651414;85;21063;-75
2021/10/02 08:58:40;;;;;;;15.48;10.98;;;;;;;14.15;55.58;101197.61;1637729;86;21029;-75
2021/10/02 09:01:08;;;;;;;18.57;10.08;;;;;;;14.22;55.15;101196.95;1605363;88;21054;-76
2021/10/02 09:03:35;;;;;;;13.62;9.15;;;;;;;14.30;54.62;101193.34;1641322;86;21060;-77
2021/10/02 09:06:02;;;;;;;9.35;8.35;;;;;;;14.41;53.55;101193.06;1657763;85;21467;-74
2021/10/02 09:08:29;;;;;;;12.55;7.47;;;;;;;14.49;53.09;101191.33;1634554;86;20973;-74
2021/10/02 09:10:57;;;;;;;13.43;6.72;;;;;;;14.60;52.77;101191.84;1655288;86;21021;-78
2021/10/02 09:13:25;;;;;;;8.43;6.42;;;;;;;14.72;52.12;101181.78;1654255;85;21058;-73
2021/10/02 09:15:55;;;;;;;12.68;7.33;;;;;;;14.85;51.08;101188.83;1671048;84;21026;-74
2021/10/02 09:18:24;;;;;;;10.55;7.85;;;;;;;14.93;50.66;101183.02;1664564;85;20923;-77
2021/10/02 09:21:06;;;;;;;14.00;6.80;;;;;;;15.01;49.76;101186.68;1653976;84;21074;-79
2021/10/02 09:23:47;;;;;;;8.20;6.33;;;;;;;15.07;49.54;101180.30;1673455;85;21064;-77
2021/10/02 09:26:15;;;;;;;10.48;6.78;;;;;;;15.16;49.40;101181.55;1605766;85;21327;-80
2021/10/02 09:28:45;;;;;;;9.63;6.80;;;;;;;15.26;48.91;101176.31;1643149;85;21104;-78
2021/10/02 09:31:14;;;;;;;8.50;7.03;;;;;;;15.35;48.24;101167.23;1620650;87;21012;-76
2021/10/02 09:33:46;;;;;;;10.35;7.22;;;;;;;15.39;47.52;101163.00;1624693;87;21040;-78
2021/10/02 09:36:22;;;;;;;10.72;6.08;;;;;;;15.43;47.23;101170.09;1657296;85;21002;-79
2021/10/02 09:38:53;;;;;;;21.37;6.72;;;;;;;15.47;47.50;101162.58;1603737;88;21074;-80
2021/10/02 09:41:20;;;;;;;12.93;8.25;;;;;;;15.54;47.22;101163.81;1609475;87;21064;-76
2021/10/02 09:43:49;;;;;;;9.43;6.60;;;;;;;15.61;47.37;101161.22;1610531;86;23219;-75
2021/10/02 09:46:17;;;;;;;8.55;6.85;;;;;;;15.72;47.09;101161.38;1599090;88;21849;-76
2021/10/02 09:48:53;;;;;;;8.63;7.17;;;;;;;15.79;46.76;101159.30;1578714;88;21030;-74
2021/10/02 09:51:23;;;;;;;11.22;6.33;;;;;;;15.86;46.52;101151.83;1569450;90;21540;-76
2021/10/02 10:07:07;;;;;;;8.78;4.85;;;;;;;16.72;44.67;101133.95;1784823;76;39446;-75
2021/10/02 10:09:39;;;;;;;7.40;5.12;;;;;;;16.79;43.62;101134.03;1793766;79;20996;-74
2021/10/02 10:12:06;;;;;;;7.10;5.50;;;;;;;16.76;43.22;101133.73;1795521;79;21031;-78
2021/10/02 10:14:35;;;;;;;5.67;4.50;;;;;;;16.75;43.63;101131.55;1799588;79;21030;-75
2021/10/02 10:17:08;;;;;;;5.72;4.65;;;;;;;16.80;43.66;101130.24;1801107;79;20942;-75
2021/10/02 10:19:32;;;;;;;10.43;7.08;;;;;;;16.77;43.44;101129.41;1797455;79;20908;-75
2021/10/02 10:22:11;;;;;;;8.80;5.97;;;;;;;16.78;43.48;101128.34;1797898;79;21520;-74
2021/10/02 10:24:41;;;;;;;8.83;5.80;;;;;;;16.84;43.81;101125.11;1806120;79;21094;-75
2021/10/02 10:27:07;;;;;;;6.80;5.62;;;;;;;16.89;43.31;101112.39;1832496;78;20933;-76
2021/10/02 10:29:40;;;;;;;8.80;6.12;;;;;;;16.87;42.84;101115.92;1808637;77;20972;-75
2021/10/02 10:32:09;;;;;;;6.53;5.62;;;;;;;16.80;43.45;101110.39;1795265;77;21031;-75
2021/10/02 10:34:39;;;;;;;8.78;6.67;;;;;;;16.81;43.64;101115.58;1755974;79;21116;-75
2021/10/02 10:37:07;;;;;;;6.70;5.47;;;;;;;16.85;43.91;101107.20;1778431;79;21243;-74
2021/10/02 10:39:35;;;;;;;7.10;6.35;;;;;;;16.94;43.61;101107.02;1807794;77;20995;-77
2021/10/02 10:42:03;;;;;;;16.70;7.08;;;;;;;16.95;43.29;101105.12;1727182;81;20959;-76
2021/10/02 10:44:32;;;;;;;9.98;5.33;;;;;;;16.93;43.18;101104.55;1806599;78;20954;-76
2021/10/02 10:46:59;;;;;;;11.15;6.62;;;;;;;16.98;43.15;101104.59;1795145;79;21004;-75
2021/10/02 10:49:25;;;;;;;8.88;5.17;;;;;;;17.04;42.73;101098.67;1803488;79;21076;-75
2021/10/02 10:51:52;;;;;;;11.60;5.67;;;;;;;17.04;42.50;101097.31;1806127;79;21083;-77
2021/10/02 10:54:19;;;;;;;8.08;4.30;;;;;;;17.08;42.71;101096.53;1781130;78;20964;-75
2021/10/02 10:56:53;;;;;;;7.33;5.83;;;;;;;17.18;42.09;101091.72;1841376;78;20972;-76
2021/10/02 10:59:19;;;;;;;9.90;5.85;;;;;;;17.23;41.68;101089.05;1841516;77;21552;-76
2021/10/02 11:01:47;;;;;;;10.55;6.17;;;;;;;17.23;41.92;101092.59;1810809;78;21513;-76
2021/10/02 11:04:37;;;;;;;10.30;6.42;;;;;;;17.23;41.67;101088.51;1841434;78;20997;-75
2021/10/02 11:07:06;;;;;;;8.63;6.72;;;;;;;17.27;41.69;101087.45;1843677;77;20913;-74
2021/10/02 11:09:39;;;;;;;11.50;7.37;;;;;;;17.41;41.17;101093.55;1844077;77;20965;-76
2021/10/02 11:12:10;;;;;;;7.58;5.67;;;;;;;17.52;40.65;101093.08;1835692;77;21068;-74
2021/10/02 11:14:54;;;;;;;10.13;5.53;;;;;;;17.59;40.71;101090.17;1830660;77;21540;-75
2021/10/02 11:17:35;;;;;;;5.85;5.05;;;;;;;17.70;40.50;101079.61;1842230;77;21029;-74
2021/10/02 11:20:30;;;;;;;9.83;6.25;;;;;;;17.86;40.30;101084.08;1844220;77;21041;-74
2021/10/02 11:23:40;;;;;;;9.18;5.95;;;;;;;17.96;39.67;101080.59;1844062;77;20966;-76
2021/10/02 11:26:15;;;;;;;7.25;5.53;;;;;;;18.01;39.60;101084.16;1843873;77;21498;-75
2021/10/02 11:28:41;;;;;;;19.95;6.50;;;;;;;18.03;39.35;101075.73;1843965;77;21035;-76
2021/10/02 11:31:14;;;;;;;12.82;6.45;;;;;;;18.06;39.44;101070.58;1843580;77;20961;-75
2021/10/02 11:33:52;;;;;;;6.42;5.28;;;;;;;18.06;39.15;101076.02;1843688;77;20998;-75
2021/10/02 11:36:35;;;;;;;6.65;6.00;;;;;;;18.11;38.81;101077.41;1819582;77;21537;-76
2021/10/02 11:39:21;;;;;;;6.05;5.42;;;;;;;18.10;38.63;101068.95;1830325;77;20982;-74
2021/10/02 11:41:54;;;;;;;11.12;7.00;;;;;;;18.09;38.92;101067.84;1830101;78;21809;-74
2021/10/02 11:44:39;;;;;;;13.20;5.80;;;;;;;18.07;39.31;101061.86;1840301;77;20925;-74
2021/10/02 11:47:45;;;;;;;8.03;5.85;;;;;;;18.09;39.08;101065.95;1843106;77;21023;-75
2021/10/02 11:50:14;;;;;;;12.47;5.85;;;;;;;18.09;38.61;101060.50;1814169;77;20928;-74
2021/10/02 11:52:53;;;;;;;8.18;5.40;;;;;;;18.05;38.68;101061.30;1843897;77;21571;-74
2021/10/02 11:55:42;;;;;;;8.13;5.97;;;;;;;17.95;38.84;101064.80;1807832;77;21129;-75
2021/10/02 11:58:12;;;;;;;11.68;6.00;;;;;;;17.91;39.22;101056.06;1827513;77;21438;-75
2021/10/02 12:00:47;;;;;;;9.05;5.83;;;;;;;17.96;38.94;101054.19;1843638;77;20949;-74
2021/10/02 12:03:25;;;;;;;9.78;6.17;;;;;;;17.86;38.84;101059.58;1844234;77;20929;-77
2021/10/02 12:05:55;;;;;;;14.65;6.28;;;;;;;17.83;39.11;101046.51;1843762;77;20881;-74
2021/10/02 12:08:21;;;;;;;8.33;5.60;;;;;;;17.88;39.21;101056.06;1844078;77;21028;-74
2021/10/02 12:11:04;;;;;;;6.37;5.70;;;;;;;17.93;39.37;101049.83;1843844;77;21006;-77
2021/10/02 12:13:37;;;;;;;11.70;6.75;;;;;;;18.02;39.23;101047.69;1840957;77;20949;-76
2021/10/02 12:16:15;;;;;;;8.18;5.78;;;;;;;18.05;39.16;101044.42;1829981;77;20949;-73
2021/10/02 12:19:11;;;;;;;10.03;6.17;;;;;;;18.05;39.20;101045.78;1830298;77;21521;-76
2021/10/02 12:21:46;;;;;;;11.10;6.67;;;;;;;18.07;39.49;101043.63;1830291;77;20930;-75
2021/10/02 12:24:24;;;;;;;10.15;7.22;;;;;;;18.15;39.01;101042.28;1841621;77;21494;-75
2021/10/02 12:27:00;;;;;;;9.75;7.10;;;;;;;18.16;38.83;101036.58;1810300;77;20909;-75
2021/10/02 12:29:32;;;;;;;11.43;5.08;;;;;;;18.19;38.84;101036.03;1844173;77;20968;-74
2021/10/02 12:32:05;;;;;;;6.97;6.28;;;;;;;18.15;38.86;101036.83;1844208;77;20940;-74
2021/10/02 12:34:39;;;;;;;12.55;6.53;;;;;;;18.08;39.20;101030.27;1843804;77;21164;-74